createdAt,value
2022-10-17T00:00:59.055Z,14.70
2022-10-17T00:03:28.100Z,14.90
2022-10-17T00:05:57.874Z,15.00
2022-10-17T00:08:26.343Z,14.80
2022-10-17T00:10:59.199Z,14.60
2022-10-17T00:13:28.113Z,14.30
2022-10-17T00:15:56.047Z,14.20
2022-10-17T00:18:24.665Z,14.20
2022-10-17T00:20:52.402Z,14.30
2022-10-17T00:23:20.106Z,14.40
2022-10-17T00:25:47.511Z,14.60
2022-10-17T00:28:15.976Z,14.70
2022-10-17T00:30:47.800Z,14.70
2022-10-17T00:33:16.154Z,14.50
2022-10-17T00:35:43.400Z,14.60
2022-10-17T00:38:10.747Z,14.80
2022-10-17T00:40:38.086Z,14.70
2022-10-17T00:43:06.635Z,14.60
2022-10-17T00:45:36.467Z,14.70
2022-10-17T00:48:09.366Z,14.80
2022-10-17T00:50:40.454Z,14.90
2022-10-17T00:53:09.648Z,15.00
2022-10-17T00:55:48.565Z,14.90
2022-10-17T00:58:16.935Z,14.90
2022-10-17T01:00:48.877Z,14.40
2022-10-17T01:03:42.112Z,14.40
2022-10-17T01:06:09.511Z,14.50
2022-10-17T01:08:37.006Z,14.60
2022-10-17T01:11:31.464Z,14.40
2022-10-17T01:14:28.160Z,14.20
2022-10-17T01:17:11.011Z,14.30
2022-10-17T01:20:15.517Z,14.30
2022-10-17T01:22:54.644Z,14.30
2022-10-17T01:25:43.147Z,14.40
2022-10-17T01:28:38.555Z,14.50
2022-10-17T01:31:16.866Z,14.60
2022-10-17T01:33:50.114Z,14.60
2022-10-17T01:36:23.461Z,14.60
2022-10-17T01:39:06.012Z,14.70
2022-10-17T01:41:42.345Z,14.70
2022-10-17T01:44:32.823Z,14.70
2022-10-17T01:47:11.398Z,14.70
2022-10-17T01:49:42.302Z,14.80
2022-10-17T01:52:41.744Z,14.70
2022-10-17T01:55:17.340Z,14.60
2022-10-17T01:57:50.685Z,14.60
2022-10-17T02:00:31.086Z,14.60
2022-10-17T02:03:04.504Z,14.70
2022-10-17T02:05:36.985Z,14.70
2022-10-17T02:08:04.902Z,14.10
2022-10-17T02:10:44.672Z,13.90
2022-10-17T02:13:12.577Z,13.90
2022-10-17T02:15:58.428Z,13.80
2022-10-17T02:19:09.489Z,13.70
2022-10-17T02:21:51.324Z,13.90
2022-10-17T02:24:33.314Z,13.90
2022-10-17T02:27:17.472Z,14.00
2022-10-17T02:29:49.984Z,14.10
2022-10-17T02:32:29.792Z,14.30
2022-10-17T02:35:01.992Z,14.30
2022-10-17T02:37:33.584Z,14.40
2022-10-17T02:40:03.513Z,14.50
2022-10-17T02:42:32.533Z,14.60
2022-10-17T02:45:02.478Z,14.60
2022-10-17T02:47:51.355Z,14.60
2022-10-17T02:53:10.909Z,14.30
2022-10-17T02:55:46.250Z,14.30
2022-10-17T02:58:21.582Z,14.20
2022-10-17T03:00:55.261Z,14.20
2022-10-17T03:03:30.828Z,14.20
2022-10-17T03:06:02.439Z,14.20
2022-10-17T03:08:30.453Z,14.20
2022-10-17T03:10:58.037Z,14.10
2022-10-17T03:13:30.793Z,13.90
2022-10-17T03:16:00.827Z,13.90
2022-10-17T03:18:29.438Z,13.90
2022-10-17T03:21:00.881Z,13.90
2022-10-17T03:23:29.096Z,13.90
2022-10-17T03:25:56.445Z,13.70
2022-10-17T03:28:24.422Z,13.60
2022-10-17T03:30:56.890Z,13.70
2022-10-17T03:33:25.848Z,13.70
2022-10-17T03:35:55.098Z,13.70
2022-10-17T03:38:25.167Z,13.90
2022-10-17T03:40:57.422Z,13.90
2022-10-17T03:43:25.875Z,13.70
2022-10-17T03:45:57.072Z,13.50
2022-10-17T03:48:29.009Z,13.50
2022-10-17T03:51:05.075Z,13.60
2022-10-17T03:53:34.985Z,13.70
2022-10-17T03:56:18.114Z,13.80
2022-10-17T03:58:51.959Z,13.90
2022-10-17T04:01:20.766Z,13.90
2022-10-17T04:03:54.206Z,13.90
2022-10-17T04:06:23.171Z,13.90
2022-10-17T04:08:51.214Z,13.90
2022-10-17T04:11:34.740Z,13.90
2022-10-17T04:14:05.030Z,13.90
2022-10-17T04:16:32.811Z,13.90
2022-10-17T04:19:04.086Z,13.90
2022-10-17T04:21:37.205Z,13.80
2022-10-17T04:24:07.503Z,13.90
2022-10-17T04:26:59.093Z,13.80
2022-10-17T04:29:30.053Z,13.40
2022-10-17T04:32:05.953Z,13.10
2022-10-17T04:34:40.275Z,12.70
2022-10-17T04:37:07.657Z,12.50
2022-10-17T04:39:36.433Z,12.50
2022-10-17T04:42:04.094Z,12.50
2022-10-17T04:44:33.677Z,12.70
2022-10-17T04:47:01.894Z,12.80
2022-10-17T04:49:29.412Z,12.90
2022-10-17T04:52:02.817Z,12.90
2022-10-17T04:54:42.859Z,12.90
2022-10-17T04:57:11.399Z,12.90
2022-10-17T04:59:40.627Z,13.00
2022-10-17T05:02:21.852Z,13.10
2022-10-17T05:04:49.634Z,13.20
2022-10-17T05:07:17.097Z,13.30
2022-10-17T05:09:51.594Z,13.30
2022-10-17T05:12:21.333Z,13.10
2022-10-17T05:14:49.650Z,13.10
2022-10-17T05:17:17.272Z,13.00
2022-10-17T05:19:45.015Z,13.00
2022-10-17T05:22:12.242Z,13.00
2022-10-17T05:24:40.476Z,13.00
2022-10-17T05:27:09.007Z,13.10
2022-10-17T05:29:36.423Z,13.10
2022-10-17T05:32:10.932Z,13.00
2022-10-17T05:34:39.213Z,12.80
2022-10-17T05:37:06.600Z,12.70
2022-10-17T05:39:34.865Z,12.60
2022-10-17T05:42:04.790Z,12.80
2022-10-17T05:44:33.911Z,13.00
2022-10-17T05:47:02.025Z,13.20
2022-10-17T05:49:44.713Z,13.40
2022-10-17T05:52:14.347Z,13.50
2022-10-17T05:54:54.884Z,13.70
2022-10-17T05:57:25.967Z,13.70
2022-10-17T05:59:53.624Z,13.30
2022-10-17T06:02:22.768Z,13.30
2022-10-17T06:04:51.550Z,13.40
2022-10-17T06:07:21.584Z,13.50
2022-10-17T06:09:50.015Z,13.60
2022-10-17T06:12:17.434Z,13.80
2022-10-17T06:14:45.858Z,13.90
2022-10-17T06:17:16.214Z,14.10
2022-10-17T06:19:45.206Z,14.00
2022-10-17T06:22:15.005Z,14.10
2022-10-17T06:24:42.902Z,14.20
2022-10-17T06:27:14.176Z,14.40
2022-10-17T06:29:42.574Z,14.60
2022-10-17T06:32:14.221Z,14.70
2022-10-17T06:34:45.866Z,14.80
2022-10-17T06:37:13.323Z,15.00
2022-10-17T06:39:41.946Z,15.00
2022-10-17T06:42:16.546Z,15.00
2022-10-17T06:45:07.760Z,15.20
2022-10-17T06:47:45.814Z,15.40
2022-10-17T06:50:34.334Z,15.60
2022-10-17T06:53:38.036Z,15.70
2022-10-17T06:56:28.239Z,15.80
2022-10-17T06:59:16.153Z,15.80
2022-10-17T07:01:51.807Z,15.80
2022-10-17T07:04:19.878Z,15.60
2022-10-17T07:06:47.177Z,15.50
2022-10-17T07:09:23.003Z,15.50
2022-10-17T07:11:51.736Z,15.50
2022-10-17T07:14:19.864Z,15.70
2022-10-17T07:16:51.413Z,15.60
2022-10-17T07:19:21.862Z,15.80
2022-10-17T07:21:51.730Z,15.80
2022-10-17T07:24:19.786Z,16.00
2022-10-17T07:26:52.802Z,16.00
2022-10-17T07:29:21.587Z,16.10
2022-10-17T07:32:10.858Z,16.20
2022-10-17T07:34:38.162Z,16.40
2022-10-17T07:37:07.599Z,16.70
2022-10-17T07:39:36.509Z,16.90
2022-10-17T07:42:05.035Z,16.90
2022-10-17T07:44:32.315Z,17.00
2022-10-17T07:47:00.488Z,17.20
2022-10-17T07:49:27.933Z,17.20
2022-10-17T07:51:55.334Z,17.20
2022-10-17T07:54:23.944Z,17.20
2022-10-17T07:56:51.921Z,17.40
2022-10-17T07:59:19.956Z,17.40
2022-10-17T08:01:47.443Z,17.50
2022-10-17T08:04:16.898Z,17.40
2022-10-17T08:06:44.297Z,17.30
2022-10-17T08:09:11.787Z,17.50
2022-10-17T08:11:39.185Z,17.60
2022-10-17T08:14:06.902Z,17.80
2022-10-17T08:16:34.270Z,17.80
2022-10-17T08:19:02.156Z,18.00
2022-10-17T08:21:29.693Z,18.20
2022-10-17T08:23:57.458Z,18.30
2022-10-17T08:26:24.691Z,18.50
2022-10-17T08:28:52.810Z,18.60
2022-10-17T08:31:21.822Z,18.70
2022-10-17T08:33:51.745Z,18.80
2022-10-17T08:36:21.790Z,18.90
2022-10-17T08:38:52.812Z,18.80
2022-10-17T08:41:55.747Z,18.80
2022-10-17T08:44:36.824Z,19.00
2022-10-17T08:47:09.933Z,19.30
2022-10-17T08:49:52.837Z,19.50
2022-10-17T08:52:46.542Z,19.70
2022-10-17T08:55:34.977Z,19.90
2022-10-17T08:58:02.496Z,20.00
2022-10-17T09:00:35.760Z,20.10
2022-10-17T09:03:40.511Z,20.20
2022-10-17T09:06:30.146Z,20.40
2022-10-17T09:09:27.148Z,20.50
2022-10-17T09:12:12.949Z,20.60
2022-10-17T09:15:04.734Z,20.60
2022-10-17T09:17:50.132Z,20.80
2022-10-17T09:20:31.107Z,20.70
2022-10-17T09:23:04.037Z,20.80
2022-10-17T09:25:41.724Z,21.00
2022-10-17T09:28:21.976Z,21.10
2022-10-17T09:31:01.266Z,21.30
2022-10-17T09:33:53.975Z,21.30
2022-10-17T09:36:22.940Z,21.60
2022-10-17T09:38:56.697Z,21.80
2022-10-17T09:41:44.734Z,22.00
2022-10-17T09:44:22.376Z,22.10
2022-10-17T09:47:05.338Z,22.00
2022-10-17T09:49:38.233Z,22.20
2022-10-17T09:52:28.249Z,22.40
2022-10-17T09:55:18.821Z,22.50
2022-10-17T09:58:04.730Z,22.50
2022-10-17T10:00:41.532Z,22.70
2022-10-17T10:03:24.883Z,22.90
2022-10-17T10:06:05.863Z,23.00
2022-10-17T10:08:50.199Z,23.30
2022-10-17T10:11:20.197Z,23.30
2022-10-17T10:13:50.041Z,23.40
2022-10-17T10:16:24.572Z,23.60
2022-10-17T10:18:53.252Z,23.60
2022-10-17T10:21:23.457Z,23.80
2022-10-17T10:24:00.159Z,23.60
2022-10-17T10:26:32.267Z,23.90
2022-10-17T10:29:08.175Z,24.00
2022-10-17T10:31:38.833Z,24.20
2022-10-17T10:34:22.785Z,24.20
2022-10-17T10:37:01.673Z,24.10
2022-10-17T10:39:47.713Z,24.20
2022-10-17T10:42:42.273Z,24.20
2022-10-17T10:45:29.365Z,24.50
2022-10-17T10:48:22.045Z,24.60
2022-10-17T10:51:04.666Z,25.00
2022-10-17T10:53:53.680Z,25.30
2022-10-17T10:56:49.890Z,25.40
2022-10-17T10:59:23.343Z,25.30
2022-10-17T11:01:57.320Z,25.50
2022-10-17T11:04:30.550Z,25.70
2022-10-17T11:07:10.818Z,25.60
2022-10-17T11:09:56.764Z,25.50
2022-10-17T11:12:38.384Z,25.60
2022-10-17T11:15:32.681Z,25.40
2022-10-17T11:18:07.172Z,25.40
2022-10-17T11:20:43.713Z,25.60
2022-10-17T11:23:24.528Z,25.80
2022-10-17T11:25:54.997Z,25.70
2022-10-17T11:28:25.144Z,25.80
2022-10-17T11:31:07.988Z,26.20
2022-10-17T11:33:54.973Z,26.50
2022-10-17T11:36:29.087Z,26.60
2022-10-17T11:39:09.099Z,26.40
2022-10-17T11:42:06.937Z,26.00
2022-10-17T11:44:39.569Z,26.00
2022-10-17T11:47:29.131Z,26.00
2022-10-17T11:53:28.011Z,26.50
2022-10-17T11:55:59.159Z,26.70
2022-10-17T11:58:56.539Z,26.60
2022-10-17T12:01:46.660Z,26.60
2022-10-17T12:04:25.012Z,26.80
2022-10-17T12:07:05.435Z,27.10
2022-10-17T12:09:53.156Z,27.20
2022-10-17T12:12:30.350Z,27.20
2022-10-17T12:15:27.956Z,27.40
2022-10-17T12:18:03.206Z,27.50
2022-10-17T12:20:38.916Z,27.40
2022-10-17T12:23:14.702Z,27.40
2022-10-17T12:26:09.665Z,27.40
2022-10-17T12:28:45.469Z,27.50
2022-10-17T12:31:22.884Z,27.30
2022-10-17T12:34:13.751Z,27.00
2022-10-17T12:36:42.364Z,26.50
2022-10-17T12:39:18.214Z,26.70
2022-10-17T12:41:46.853Z,26.90
2022-10-17T12:44:14.513Z,27.00
2022-10-17T12:46:52.475Z,26.80
2022-10-17T12:49:39.456Z,27.00
2022-10-17T12:52:23.508Z,26.80
2022-10-17T12:55:10.902Z,26.40
2022-10-17T12:57:51.209Z,26.60
2022-10-17T13:00:27.080Z,26.70
2022-10-17T13:03:03.844Z,26.70
2022-10-17T13:05:37.379Z,27.10
2022-10-17T13:08:08.317Z,27.50
2022-10-17T13:10:41.906Z,27.30
2022-10-17T13:13:19.337Z,27.20
2022-10-17T13:15:58.457Z,27.30
2022-10-17T13:18:29.947Z,27.30
2022-10-17T13:21:02.117Z,27.00
2022-10-17T13:23:41.781Z,26.90
2022-10-17T13:26:14.781Z,26.80
2022-10-17T13:28:43.946Z,26.90
2022-10-17T13:31:32.341Z,27.00
2022-10-17T13:34:03.084Z,27.40
2022-10-17T13:36:32.776Z,27.60
2022-10-17T13:39:12.377Z,27.70
2022-10-17T13:41:42.518Z,27.80
2022-10-17T13:44:21.753Z,28.00
2022-10-17T13:46:49.753Z,28.00
2022-10-17T13:49:40.793Z,27.50
2022-10-17T13:52:18.328Z,27.20
2022-10-17T13:54:48.647Z,27.20
2022-10-17T13:57:26.967Z,27.50
2022-10-17T13:59:58.608Z,27.50
2022-10-17T14:02:34.529Z,27.20
2022-10-17T14:05:18.367Z,27.30
2022-10-17T14:08:19.136Z,27.20
2022-10-17T14:10:47.400Z,27.10
2022-10-17T14:13:28.113Z,27.10
2022-10-17T14:16:00.653Z,27.30
2022-10-17T14:18:35.989Z,27.20
2022-10-17T14:21:34.345Z,27.20
2022-10-17T14:24:13.035Z,27.00
2022-10-17T14:26:54.296Z,27.10
2022-10-17T14:29:31.201Z,27.20
2022-10-17T14:32:18.050Z,27.30
2022-10-17T14:34:46.773Z,27.30
2022-10-17T14:37:40.789Z,27.20
2022-10-17T14:40:15.887Z,27.40
2022-10-17T14:42:43.824Z,27.70
2022-10-17T14:45:28.079Z,28.50
2022-10-17T14:48:12.658Z,29.10
2022-10-17T14:50:40.425Z,28.60
2022-10-17T14:53:21.321Z,28.00
2022-10-17T14:56:01.598Z,27.90
2022-10-17T14:58:34.475Z,28.10
2022-10-17T15:01:08.401Z,28.60
2022-10-17T15:03:38.393Z,29.40
2022-10-17T15:06:24.614Z,30.20
2022-10-17T15:08:52.045Z,31.20
2022-10-17T15:11:19.384Z,31.40
2022-10-17T15:13:46.792Z,30.80
2022-10-17T15:16:21.767Z,30.10
2022-10-17T15:18:49.726Z,30.50
2022-10-17T15:21:26.644Z,30.30
2022-10-17T15:24:05.970Z,28.90
2022-10-17T15:26:34.544Z,27.00
2022-10-17T15:29:02.372Z,26.10
2022-10-17T15:31:33.889Z,25.60
2022-10-17T15:34:02.074Z,25.10
2022-10-17T15:36:37.648Z,25.00
2022-10-17T15:39:05.569Z,25.00
2022-10-17T15:41:33.583Z,24.90
2022-10-17T15:44:01.787Z,24.80
2022-10-17T15:46:33.476Z,24.70
2022-10-17T15:49:07.750Z,24.40
2022-10-17T15:51:35.218Z,24.00
2022-10-17T15:54:02.625Z,23.80
2022-10-17T15:56:37.533Z,23.50
2022-10-17T15:59:14.101Z,23.40
2022-10-17T16:01:42.827Z,23.30
2022-10-17T16:04:13.332Z,23.00
2022-10-17T16:06:41.062Z,22.70
2022-10-17T16:09:08.785Z,22.60
2022-10-17T16:11:37.951Z,22.60
2022-10-17T16:14:14.963Z,22.60
2022-10-17T16:16:42.984Z,22.70
2022-10-17T16:19:11.604Z,22.60
2022-10-17T16:21:43.813Z,22.60
2022-10-17T16:24:12.426Z,22.50
2022-10-17T16:26:40.800Z,22.40
2022-10-17T16:29:10.294Z,22.00
2022-10-17T16:31:42.184Z,21.90
2022-10-17T16:34:13.341Z,21.90
2022-10-17T16:36:41.337Z,21.90
2022-10-17T16:39:09.039Z,21.70
2022-10-17T16:41:38.573Z,21.70
2022-10-17T16:44:08.464Z,21.70
2022-10-17T16:46:37.792Z,21.60
2022-10-17T16:49:06.371Z,21.60
2022-10-17T16:51:36.068Z,21.50
2022-10-17T16:54:04.865Z,21.20
2022-10-17T16:56:33.149Z,21.20
2022-10-17T16:59:02.025Z,21.10
2022-10-17T17:01:31.779Z,21.10
2022-10-17T17:04:10.885Z,21.00
2022-10-17T17:06:41.631Z,20.90
2022-10-17T17:09:09.999Z,20.90
2022-10-17T17:11:38.148Z,20.80
2022-10-17T17:14:07.852Z,20.70
2022-10-17T17:16:35.565Z,20.60
2022-10-17T17:19:07.981Z,20.50
2022-10-17T17:21:35.794Z,20.30
2022-10-17T17:24:04.656Z,20.00
2022-10-17T17:26:36.368Z,19.30
2022-10-17T17:29:04.605Z,19.40
2022-10-17T17:31:34.406Z,19.40
2022-10-17T17:34:02.743Z,19.50
2022-10-17T17:36:33.632Z,19.60
2022-10-17T17:39:04.435Z,19.60
2022-10-17T17:41:33.342Z,19.70
2022-10-17T17:44:02.537Z,19.70
2022-10-17T17:46:30.855Z,19.80
2022-10-17T17:48:59.513Z,19.90
2022-10-17T17:51:29.641Z,19.60
2022-10-17T17:53:59.368Z,19.40
2022-10-17T17:56:30.509Z,19.30
2022-10-17T17:59:01.398Z,19.30
2022-10-17T18:01:38.721Z,19.30
2022-10-17T18:04:08.990Z,19.30
2022-10-17T18:06:37.979Z,19.00
2022-10-17T18:09:06.356Z,18.70
2022-10-17T18:11:34.050Z,18.30
2022-10-17T18:14:08.605Z,18.20
2022-10-17T18:16:37.472Z,18.00
2022-10-17T18:19:07.224Z,17.80
2022-10-17T18:21:35.802Z,17.80
2022-10-17T18:24:05.149Z,18.10
2022-10-17T18:26:33.067Z,18.30
2022-10-17T18:29:01.141Z,18.50
2022-10-17T18:31:32.282Z,18.70
2022-10-17T18:34:01.823Z,18.80
2022-10-17T18:36:34.175Z,18.90
2022-10-17T18:39:03.432Z,18.90
2022-10-17T18:41:32.089Z,18.60
2022-10-17T18:44:00.516Z,18.60
2022-10-17T18:46:31.308Z,18.10
2022-10-17T18:48:59.678Z,17.80
2022-10-17T18:51:28.056Z,17.90
2022-10-17T18:53:59.545Z,18.00
2022-10-17T18:56:28.183Z,18.20
2022-10-17T18:58:56.549Z,18.40
2022-10-17T19:01:26.730Z,18.60
2022-10-17T19:03:57.909Z,18.60
2022-10-17T19:06:27.870Z,18.30
2022-10-17T19:08:55.101Z,18.10
2022-10-17T19:11:25.179Z,18.00
2022-10-17T19:13:53.423Z,18.00
2022-10-17T19:16:24.224Z,17.50
2022-10-17T19:18:53.842Z,17.40
2022-10-17T19:21:22.406Z,17.50
2022-10-17T19:24:00.847Z,17.70
2022-10-17T19:26:30.908Z,17.90
2022-10-17T19:29:00.995Z,18.00
2022-10-17T19:31:31.715Z,18.10
2022-10-17T19:34:00.668Z,17.70
2022-10-17T19:36:33.604Z,17.40
2022-10-17T19:39:07.360Z,17.00
2022-10-17T19:41:36.531Z,16.90
2022-10-17T19:44:04.178Z,17.00
2022-10-17T19:46:34.213Z,16.90
2022-10-17T19:49:02.788Z,16.80
2022-10-17T19:51:30.983Z,17.00
2022-10-17T19:54:00.951Z,17.20
2022-10-17T19:56:33.306Z,17.50
2022-10-17T19:59:01.216Z,17.60
2022-10-17T20:01:31.754Z,17.80
2022-10-17T20:04:00.800Z,17.80
2022-10-17T20:06:29.735Z,17.80
2022-10-17T20:08:57.973Z,17.80
2022-10-17T20:11:28.002Z,17.80
2022-10-17T20:13:56.703Z,17.80
2022-10-17T20:16:29.786Z,17.70
2022-10-17T20:19:02.896Z,17.40
2022-10-17T20:21:33.305Z,17.20
2022-10-17T20:24:02.398Z,17.00
2022-10-17T20:26:39.812Z,16.80
2022-10-17T20:29:14.787Z,16.90
2022-10-17T20:31:44.005Z,17.00
2022-10-17T20:34:14.233Z,17.20
2022-10-17T20:36:42.539Z,17.20
2022-10-17T20:39:11.847Z,17.00
2022-10-17T20:41:39.765Z,17.00
2022-10-17T20:44:07.712Z,17.10
2022-10-17T20:46:37.217Z,17.20
2022-10-17T20:49:07.085Z,17.30
2022-10-17T20:51:35.711Z,17.40
2022-10-17T20:54:03.576Z,17.10
2022-10-17T20:56:34.233Z,16.80
2022-10-17T20:59:02.851Z,16.70
2022-10-17T21:01:32.117Z,16.70
2022-10-17T21:04:15.927Z,16.80
2022-10-17T21:06:48.336Z,16.90
2022-10-17T21:09:15.747Z,16.50
2022-10-17T21:11:43.513Z,16.40
2022-10-17T21:14:12.200Z,16.50
2022-10-17T21:16:41.461Z,16.70
2022-10-17T21:19:11.223Z,16.90
2022-10-17T21:21:41.327Z,16.90
2022-10-17T21:24:14.359Z,16.70
2022-10-17T21:26:43.794Z,16.60
2022-10-17T21:29:12.919Z,16.40
2022-10-17T21:31:42.482Z,16.40
2022-10-17T21:34:13.133Z,16.10
2022-10-17T21:36:41.097Z,16.00
2022-10-17T21:41:41.546Z,16.00
2022-10-17T21:44:17.545Z,16.10
2022-10-17T21:46:45.956Z,16.20
2022-10-17T21:49:15.291Z,16.40
2022-10-17T21:51:44.302Z,16.50
2022-10-17T21:54:11.994Z,16.60
2022-10-17T21:56:39.670Z,16.70
2022-10-17T21:59:07.445Z,16.80
2022-10-17T22:01:40.846Z,16.80
2022-10-17T22:04:13.815Z,16.80
2022-10-17T22:06:42.840Z,16.80
2022-10-17T22:09:17.022Z,16.40
2022-10-17T22:11:49.373Z,16.30
2022-10-17T22:14:19.118Z,16.40
2022-10-17T22:16:47.545Z,16.40
2022-10-17T22:19:18.409Z,16.50
2022-10-17T22:21:45.875Z,16.40
2022-10-17T22:24:15.104Z,16.10
2022-10-17T22:26:43.210Z,15.80
2022-10-17T22:29:10.963Z,15.80
2022-10-17T22:31:39.074Z,15.70
2022-10-17T22:34:07.841Z,15.80
2022-10-17T22:36:35.955Z,16.00
2022-10-17T22:39:04.475Z,16.20
2022-10-17T22:41:32.656Z,16.20
2022-10-17T22:44:00.258Z,16.10
2022-10-17T22:46:28.573Z,15.80
2022-10-17T22:48:56.260Z,15.60
2022-10-17T22:53:57.044Z,15.80
2022-10-17T22:56:24.282Z,16.00
2022-10-17T22:58:52.100Z,16.00
2022-10-17T23:01:24.897Z,16.00
2022-10-17T23:03:53.117Z,15.80
2022-10-17T23:06:21.157Z,15.80
2022-10-17T23:08:48.822Z,15.80
2022-10-17T23:11:16.673Z,15.60
2022-10-17T23:13:44.253Z,15.30
2022-10-17T23:16:11.767Z,15.20
2022-10-17T23:18:39.871Z,15.30
2022-10-17T23:21:07.949Z,15.50
2022-10-17T23:23:35.837Z,15.50
2022-10-17T23:26:08.618Z,15.60
2022-10-17T23:28:36.249Z,15.60
2022-10-17T23:31:17.891Z,15.80
2022-10-17T23:33:47.609Z,15.90
2022-10-17T23:36:21.388Z,16.00
2022-10-17T23:38:50.200Z,15.70
2022-10-17T23:41:19.239Z,15.40
2022-10-17T23:43:46.647Z,15.20
2022-10-17T23:46:14.616Z,15.20
2022-10-17T23:48:42.047Z,15.40
2022-10-17T23:51:10.784Z,15.50
2022-10-17T23:53:39.236Z,15.60
2022-10-17T23:56:07.987Z,15.70
2022-10-17T23:58:35.899Z,15.80
